Main page
METAR-TAF:

METAR-TAF

Airports :

Dundee Airport

Dundee, Scotland

latitude: 56-27N, longitude: 003-01W, elevation: 4 m

Current weather observation

The report was made 5 hours and 28 minutes ago, at 14:50 UTC
Wind 13 kt from the West
Temperature 13°C
Humidity 94%
Pressure 1023 hPa
Visibility 10 km or more
Few clouds at a height of 800 ft
Broken clouds at a height of 1800 ft

METAR: EGPN 201450Z 26013KT 9999 FEW008 BKN018 13/12 Q1023

Time: 21:18 (20:18 UTC)

Forecast

The report was made 9 hours and 15 minutes ago, at 11:03 UTC
Forecast valid from 20 at 12 UTC to 20 at 16 UTC
Wind 8 kt from the West
Visibility 10 km or more
Broken clouds at a height of 1500 ft
Temporary
from 20 at 12 UTC to 20 at 16 UTC
Visibility: 6000 m
Broken clouds at a height of 800 ft
light rain, drizzle

TAF: EGPN 201103Z 2012/2016 26008KT 9999 BKN015 TEMPO 2012/2016 6000 -RADZ BKN008

Weather observations and forecasts of more than 4000 airports (METAR and TAF reports).

The available stations are represented by yellow and red dots on the map.

Hover mouse over dot to see the name of the station.

Then click to see weather observations and forecasts.

To change the map : click on the green buttons with a black cross to zoom in, on the green button with a dash to zoom out, or on the green arrows for adjacent maps.


METAR-TAF: